createdAt,value
2023-02-24T00:01:25.156Z,8.748528677801733
2023-02-24T00:04:18.260Z,8.701643255102772
2023-02-24T00:07:17.684Z,8.64383934266525
2023-02-24T00:11:18.325Z,8.593100383215642
2023-02-24T00:14:16.617Z,8.589889057623168
2023-02-24T00:17:16.815Z,8.551995424217603
2023-02-24T00:21:16.562Z,8.553922218754542
2023-02-24T00:24:17.903Z,8.508963690223117
2023-02-24T00:27:16.571Z,8.526304834302573
2023-02-24T00:31:18.610Z,8.464647448192409
2023-02-24T00:34:16.937Z,8.466574240873978
2023-02-24T00:37:16.932Z,8.434461034857758
2023-02-24T00:41:18.486Z,8.434461034857758
2023-02-24T00:44:16.798Z,8.403632367777846
2023-02-24T00:47:16.601Z,8.366381075701884
2023-02-24T00:51:21.512Z,8.408770478230235
2023-02-24T00:54:16.579Z,8.379226347103486
2023-02-24T00:57:18.037Z,8.367023339228762
2023-02-24T01:01:19.839Z,8.358673913734037
2023-02-24T01:04:18.094Z,8.271968386718072
2023-02-24T01:07:17.134Z,8.284813644750102
2023-02-24T01:21:17.229Z,8.198108188333663
2023-02-24T01:24:16.472Z,8.123605788281656
2023-02-24T01:27:18.707Z,8.099199842949838
2023-02-24T01:31:19.816Z,8.054883801108009
2023-02-24T01:34:18.153Z,7.9900154310752445
2023-02-24T01:37:16.867Z,7.968178564470963
2023-02-24T01:41:20.212Z,8.031120135414767
2023-02-24T01:45:25.360Z,7.9925844745507675
2023-02-24T01:47:18.949Z,7.954048830057673
2023-02-24T01:51:16.525Z,7.981023779483894
2023-02-24T01:54:20.516Z,7.98808864851635
2023-02-24T01:57:20.074Z,7.9373500558614065
2023-02-24T02:01:17.780Z,7.989373170217732
2023-02-24T02:04:25.610Z,7.970747607328031
2023-02-24T02:07:20.721Z,7.981666040282289
2023-02-24T02:11:23.170Z,7.959186915044211
2023-02-24T02:14:18.617Z,7.915513201935482
2023-02-24T02:17:22.895Z,7.876977590184197
2023-02-24T02:21:44.421Z,7.842937813421304
2023-02-24T02:24:32.376Z,7.827523579089029
2023-02-24T02:27:48.037Z,7.828165838800578
2023-02-24T02:31:47.817Z,7.806971270720533
2023-02-24T02:34:28.417Z,7.836515215464533
2023-02-24T02:37:25.743Z,7.79284156141839
2023-02-24T02:41:23.993Z,7.789630264156676
2023-02-24T02:44:23.061Z,7.772289260907928
2023-02-24T02:47:25.383Z,7.807613530286562
2023-02-24T02:51:21.177Z,7.801190934830902
2023-02-24T02:54:24.282Z,7.788988004717976
2023-02-24T02:57:20.840Z,7.783207669974308
2023-02-24T03:01:18.824Z,7.7196240121047595
2023-02-24T03:04:21.390Z,7.722193047922337
2023-02-24T03:07:20.232Z,7.675308155704352
2023-02-24T03:11:19.725Z,7.607228766310527
2023-02-24T03:14:21.426Z,7.561628449158524
2023-02-24T03:17:21.922Z,7.518597184981718
2023-02-24T03:21:21.105Z,7.509605580120206
2023-02-24T03:24:16.745Z,7.564839738348473
2023-02-24T03:27:22.865Z,7.5160281549303365
2023-02-24T03:31:25.162Z,7.526946533151204
2023-02-24T03:34:21.023Z,7.499329461369871
2023-02-24T03:37:17.167Z,7.465289826324442
2023-02-24T03:41:17.511Z,7.491622373071095
2023-02-24T03:44:17.131Z,7.446022114035804
2023-02-24T03:47:17.771Z,7.4318924609586245
2023-02-24T03:51:19.929Z,7.4376727733150805
2023-02-24T03:54:33.614Z,7.354821664736664
2023-02-24T03:57:27.725Z,7.349041357659826
2023-02-24T04:01:28.489Z,7.377942896727473
2023-02-24T04:04:20.568Z,7.356748433844132
2023-02-24T04:07:26.859Z,7.383723205646038
2023-02-24T04:11:24.800Z,7.399779621241396
2023-02-24T04:14:25.462Z,7.388861258327324
2023-02-24T04:17:23.328Z,7.354179408376604
2023-02-24T04:21:19.182Z,7.367024536441841
2023-02-24T04:24:28.045Z,7.362528741412097
2023-02-24T04:27:17.813Z,7.308579218435625
2023-02-24T04:31:21.967Z,7.428681176475311
2023-02-24T04:34:20.436Z,7.3965683378949505
2023-02-24T04:37:17.453Z,7.35995971578086
2023-02-24T04:41:21.599Z,7.376658383684481
2023-02-24T04:44:20.164Z,7.309221474472816
2023-02-24T04:47:16.701Z,7.358675202992527
2023-02-24T04:51:16.739Z,7.340049769605775
2023-02-24T04:54:19.671Z,7.344545563521388
2023-02-24T04:57:17.054Z,7.388861258327324
2023-02-24T05:01:16.169Z,7.422258607849744
2023-02-24T05:04:17.439Z,7.435746002488668
2023-02-24T05:07:16.853Z,7.45180242729266
2023-02-24T05:11:17.620Z,7.47556594121852
2023-02-24T05:14:18.668Z,7.4543714555250515
2023-02-24T05:17:16.975Z,7.444095343032041
2023-02-24T05:21:48.624Z,7.478777227361661
2023-02-24T05:24:17.462Z,7.442810829052268
2023-02-24T05:27:17.386Z,7.474923684003533
2023-02-24T05:31:18.347Z,7.470427883625962
2023-02-24T05:34:17.334Z,7.460151769313962
2023-02-24T05:37:16.880Z,7.462720797782822
2023-02-24T05:41:18.843Z,7.511532352515497
2023-02-24T05:44:18.702Z,7.593741346173919
2023-02-24T05:47:19.646Z,7.6200739302098555
2023-02-24T05:51:17.153Z,7.691364622913534
2023-02-24T05:54:17.743Z,7.727973378777915
2023-02-24T05:57:18.932Z,7.744029855309418
2023-02-24T06:01:17.708Z,7.7793541136831665
2023-02-24T06:04:21.186Z,7.798621896775967
2023-02-24T06:07:20.656Z,7.7478834100998935
2023-02-24T06:11:17.974Z,7.772931520228394
2023-02-24T06:14:16.362Z,7.802475453885654
2023-02-24T06:17:17.882Z,7.796695118282514
2023-02-24T06:21:17.175Z,7.791557042500062
2023-02-24T06:24:18.395Z,7.814678385813022
2023-02-24T06:27:19.692Z,7.808898049432264
2023-02-24T06:31:15.783Z,7.891107312592157
2023-02-24T06:34:18.215Z,7.9360655348967155
2023-02-24T06:37:16.112Z,7.902667996199398
2023-02-24T06:41:16.522Z,7.9476262242337725
2023-02-24T06:44:17.058Z,7.946341703123562
2023-02-24T06:47:18.203Z,7.998364822636722
2023-02-24T06:51:16.103Z,8.117825432214886
2023-02-24T06:54:16.523Z,8.154434360192045
2023-02-24T06:57:16.418Z,8.200034975353628
2023-02-24T07:01:17.420Z,8.271968386718072
2023-02-24T07:04:21.030Z,8.343901855126024
2023-02-24T07:07:17.680Z,8.376015029082556
2023-02-24T07:11:19.942Z,8.44923310821323
2023-02-24T07:14:17.953Z,8.482630848145345
2023-02-24T07:17:18.964Z,8.539792393100743
2023-02-24T07:21:16.904Z,8.622002318663817
2023-02-24T07:24:26.398Z,8.675310357091075
2023-02-24T07:27:22.808Z,8.697789659794307
2023-02-24T07:31:19.222Z,8.747886411573655
2023-02-24T07:34:24.667Z,8.786422393307385
2023-02-24T07:37:17.010Z,8.836519194035736
2023-02-24T07:41:21.539Z,8.889185091299533
2023-02-24T07:44:17.377Z,8.999012853474415
2023-02-24T07:47:16.408Z,9.045898429873432
2023-02-24T07:51:18.983Z,9.124897469580173
2023-02-24T07:54:16.487Z,9.196831614361145
2023-02-24T07:57:19.011Z,9.279684405377429
2023-02-24T08:01:19.514Z,9.40043124406957
2023-02-24T08:04:20.114Z,9.47621923556153
2023-02-24T08:07:17.041Z,9.549438202731926
2023-02-24T08:11:15.931Z,9.670827673250823
2023-02-24T08:14:16.287Z,9.696518587309765
2023-02-24T08:17:21.409Z,9.780014108250906
2023-02-24T08:21:17.226Z,9.86350970604435
2023-02-24T08:24:20.416Z,9.918103023077219
2023-02-24T08:27:22.079Z,9.97526547259331
2023-02-24T08:31:18.796Z,10.088305928245244
2023-02-24T08:34:16.495Z,10.157029455930115
2023-02-24T08:37:16.568Z,10.203915630863047
2023-02-24T08:41:20.366Z,10.30411082564533
2023-02-24T08:44:18.940Z,10.39852562969545
2023-02-24T08:47:21.172Z,10.462753443713973
2023-02-24T08:51:20.446Z,10.53982688056285
2023-02-24T08:54:19.857Z,10.63359965036516
2023-02-24T08:57:18.367Z,10.70553499153184
2023-02-24T09:01:22.665Z,10.82499916628376
2023-02-24T09:04:19.803Z,10.893080970658866
2023-02-24T09:07:20.228Z,11.001626594626941
2023-02-24T09:11:16.718Z,11.072277662256965
2023-02-24T09:14:26.505Z,11.141644218553846
2023-02-24T09:17:23.178Z,11.214222246276131
2023-02-24T09:21:44.448Z,11.318272263420749
2023-02-24T09:24:27.155Z,11.35424019833963
2023-02-24T09:27:17.747Z,11.412688122998588
2023-02-24T09:31:17.290Z,11.518022939449656
2023-02-24T09:34:18.830Z,11.557202384092761
2023-02-24T09:37:25.334Z,11.611154433918363
2023-02-24T09:41:34.325Z,11.67281395872351
2023-02-24T09:44:26.121Z,11.735758100190377
2023-02-24T09:47:25.004Z,11.826962954090504
2023-02-24T09:51:22.695Z,11.882842029596578
2023-02-24T09:54:19.936Z,11.981112211391974
2023-02-24T09:57:23.322Z,11.986250524479782
2023-02-24T10:01:32.315Z,12.06460983513034
2023-02-24T10:05:07.821Z,12.078097920021174
2023-02-24T10:07:19.280Z,12.163522504233788
2023-02-24T10:11:17.223Z,12.256012370316693
2023-02-24T10:14:37.910Z,12.250874041949373
2023-02-24T10:17:27.424Z,12.284273181539266
2023-02-24T10:21:23.555Z,12.360063582373641
2023-02-24T10:24:25.402Z,12.421723616204781
2023-02-24T10:27:21.786Z,12.4686109616483
2023-02-24T10:31:31.475Z,12.57715847080335
2023-02-24T10:34:21.528Z,12.6535914102049
2023-02-24T10:37:27.999Z,12.774985034554357
2023-02-24T10:41:16.656Z,12.886102092359215
2023-02-24T10:44:21.210Z,12.93170508610865
2023-02-24T10:47:19.515Z,13.001073064218598
2023-02-24T10:51:23.223Z,13.049887599128942
2023-02-24T10:54:35.914Z,13.105125130836768
2023-02-24T10:57:21.572Z,13.11861337043265
2023-02-24T11:01:25.611Z,13.18541230084702
2023-02-24T11:04:36.879Z,13.265057243701085
2023-02-24T11:07:25.186Z,13.322864100855076
2023-02-24T11:11:33.205Z,13.385809387202972
2023-02-24T11:21:17.083Z,13.636948668490458
2023-02-24T11:24:18.560Z,13.70310567925335
2023-02-24T11:27:21.759Z,13.773758850817467
2023-02-24T11:31:30.243Z,13.936903657195217
2023-02-24T11:34:21.301Z,14.004987797016293
2023-02-24T11:37:32.184Z,14.102617973473752
2023-02-24T11:41:22.574Z,14.197679035715192
2023-02-24T11:44:22.821Z,14.304301697015763
2023-02-24T11:47:23.212Z,14.349905403663524
2023-02-24T11:51:21.568Z,14.467447457471645
2023-02-24T11:54:17.889Z,14.511766632049785
2023-02-24T11:57:22.961Z,14.575355050783037
2023-02-24T12:01:22.404Z,14.650505057656938
2023-02-24T12:04:22.053Z,14.7295089781579
2023-02-24T12:07:23.996Z,14.799520640002537
2023-02-24T12:11:23.769Z,14.9292671653443
2023-02-24T12:14:25.538Z,15.025613715106829
2023-02-24T12:17:25.338Z,15.064794674608857
2023-02-24T12:31:32.587Z,15.236934172573092
2023-02-24T12:34:29.700Z,15.235649548244329
2023-02-24T12:37:33.334Z,15.22087636977094
2023-02-24T12:41:31.117Z,15.229868738989989
2023-02-24T12:44:29.096Z,15.276115223338365
2023-02-24T12:47:24.607Z,15.308230851338976
2023-02-24T12:51:24.885Z,15.315938603750784
2023-02-24T12:54:22.624Z,15.304376975378636
2023-02-24T12:57:27.811Z,15.346127307002098
2023-02-24T13:01:26.798Z,15.410358623939464
2023-02-24T13:04:28.910Z,15.446328181287754
2023-02-24T13:07:35.075Z,15.473305358657672
2023-02-24T13:11:26.600Z,15.487436264290954
2023-02-24T13:14:26.410Z,15.513771139753317
2023-02-24T13:17:21.235Z,15.533040565666397
2023-02-24T13:21:21.189Z,15.567083228115006
2023-02-24T13:24:20.460Z,15.606906736247765
2023-02-24T13:27:23.025Z,15.626818496869328
2023-02-24T13:31:17.051Z,15.649299522178262
2023-02-24T13:34:42.467Z,15.692334643308367
2023-02-24T13:37:27.141Z,15.720596525006204
2023-02-24T13:41:32.811Z,15.783543474974522
2023-02-24T13:44:25.205Z,15.824651710772832
2023-02-24T13:47:38.864Z,15.86383301535534
2023-02-24T13:51:52.537Z,15.955042019434405
2023-02-24T13:54:30.455Z,16.0321201225368
2023-02-24T13:57:36.871Z,16.074513107155507
2023-02-24T14:01:19.215Z,16.2068307320038
2023-02-24T14:04:20.749Z,16.301251679372307
2023-02-24T14:07:22.474Z,16.3898918418382
2023-02-24T14:11:17.734Z,16.42072322299582
2023-02-24T14:14:18.819Z,16.496517079546265
2023-02-24T14:17:22.334Z,16.562033854027778
2023-02-24T14:21:21.184Z,16.619842811978106
2023-02-24T14:24:18.199Z,16.65388588222595
2023-02-24T14:27:25.239Z,16.72518367451348
2023-02-24T14:31:22.902Z,16.79519687641914
2023-02-24T14:34:21.144Z,16.847225070626244
2023-02-24T14:37:22.738Z,16.903107238377924
2023-02-24T14:41:21.334Z,16.923661607588656
2023-02-24T14:44:20.808Z,16.973762902048474
2023-02-24T14:47:19.252Z,16.991747988859423
2023-02-24T14:51:22.591Z,17.053411170706386
2023-02-24T14:54:22.521Z,17.094519981887423
2023-02-24T14:57:22.296Z,17.112505092636276
2023-02-24T15:01:21.728Z,17.16132183978334
2023-02-24T15:04:30.066Z,17.160037188206115
2023-02-24T15:07:20.794Z,17.14590602205717
2023-02-24T15:11:21.666Z,17.160037188206115
2023-02-24T15:14:22.334Z,17.218488853384862
2023-02-24T15:17:20.084Z,17.259597739362743
2023-02-24T15:21:21.928Z,17.2159195486297
2023-02-24T15:24:19.728Z,17.208211634800772
2023-02-24T15:27:24.656Z,17.235831662385316
2023-02-24T15:31:18.945Z,17.247393536894016
2023-02-24T15:34:20.290Z,17.241612599455493
2023-02-24T15:37:24.134Z,17.23454700975308
2023-02-24T15:41:16.440Z,17.194722787175852
2023-02-24T15:44:34.962Z,17.203715352036305
2023-02-24T15:47:21.961Z,17.202430699858816
2023-02-24T15:51:27.876Z,17.144621370698225
2023-02-24T15:54:19.799Z,17.109935790882446
2023-02-24T15:57:18.576Z,17.120212998334317
2023-02-24T16:01:16.582Z,17.06689999732198
2023-02-24T16:04:16.998Z,17.011660053415927
2023-02-24T16:07:21.368Z,16.965412684383864
2023-02-24T16:11:21.011Z,16.91274209836565
2023-02-24T16:14:17.834Z,16.862640837602612
2023-02-24T16:17:27.471Z,16.75794213840418
2023-02-24T16:21:17.121Z,16.640397117014892
2023-02-24T16:24:17.308Z,16.57231099941573
2023-02-24T16:27:19.538Z,16.45412389774001
2023-02-24T16:31:17.888Z,16.415584658741956
2023-02-24T16:34:17.488Z,16.33529463007617
2023-02-24T16:37:20.072Z,16.24280060512865
2023-02-24T16:41:16.943Z,16.096351925144337
2023-02-24T16:44:17.031Z,16.024412309279796
2023-02-24T16:47:19.902Z,15.926780064704143
2023-02-24T16:51:16.662Z,15.830432557925814
2023-02-24T16:54:16.786Z,15.788682003430676
2023-02-24T16:57:17.162Z,15.714815684851782
2023-02-24T17:01:20.198Z,15.607549051038314
2023-02-24T17:04:16.841Z,15.54267528015771
2023-02-24T17:07:18.005Z,15.526617423240623
2023-02-24T17:11:19.764Z,15.385950718146342
2023-02-24T17:14:19.475Z,15.33456567478279
2023-02-24T17:17:17.409Z,15.283822973021689
2023-02-24T17:21:16.312Z,15.194541579328142
2023-02-24T17:24:19.145Z,15.15600287538582
2023-02-24T17:27:16.590Z,15.080852449785107
2023-02-24T17:31:16.640Z,14.974871186145174
2023-02-24T17:34:17.074Z,14.927340235392695
2023-02-24T17:37:17.037Z,14.854116927558788
2023-02-24T17:41:16.819Z,14.829709171413924
2023-02-24T17:44:16.926Z,14.762909030280207
2023-02-24T17:47:16.952Z,14.708312797611962
2023-02-24T17:51:19.253Z,14.655001213887953
2023-02-24T17:54:17.863Z,14.558655057709256
2023-02-24T17:57:17.754Z,14.500847413114752
2023-02-24T18:01:16.991Z,14.459739777146387
2023-02-24T18:04:17.566Z,14.387801459021649
2023-02-24T18:07:20.968Z,14.313293975385387
2023-02-24T18:11:20.336Z,14.254844181914905
2023-02-24T18:14:22.898Z,14.156571537116907
2023-02-24T18:17:22.084Z,14.148863883203376
2023-02-24T18:21:18.173Z,14.05701439113118
2023-02-24T18:24:20.486Z,13.982507179160985
2023-02-24T18:27:17.930Z,13.965807295217473
2023-02-24T18:31:20.471Z,13.901577001006899
2023-02-24T18:34:18.543Z,13.833492938793006
2023-02-24T18:37:18.580Z,13.82899682327552
2023-02-24T18:41:22.418Z,13.75513210024592
2023-02-24T18:44:18.637Z,13.734578448881166
2023-02-24T18:47:17.664Z,13.678055931638756
2023-02-24T18:51:21.325Z,13.728797735273838
2023-02-24T18:54:17.352Z,13.651079288096753
2023-02-24T18:57:17.294Z,13.578499310772532
2023-02-24T19:01:19.000Z,13.565653303134969
2023-02-24T19:04:18.390Z,13.481511998085717
2023-02-24T19:07:17.381Z,13.415997448191865
2023-02-24T19:11:19.319Z,13.37296340685025
2023-02-24T19:14:17.586Z,13.34277536018135
2023-02-24T19:17:19.446Z,13.281756998650962
2023-02-24T19:21:17.659Z,13.200185147868705
2023-02-24T19:24:17.664Z,13.195046766023097
2023-02-24T19:27:17.716Z,13.110263507589206
2023-02-24T19:31:18.677Z,13.094206081204174
2023-02-24T19:34:16.589Z,13.004284545971313
2023-02-24T19:37:16.882Z,12.933631973673254
2023-02-24T19:41:17.158Z,12.879036841857396
2023-02-24T19:44:17.290Z,12.803246007448706
2023-02-24T19:47:17.846Z,12.76599290866152
2023-02-24T19:51:19.166Z,12.68763299217835
2023-02-24T19:54:17.571Z,12.678640874943904
2023-02-24T19:57:17.395Z,12.658729761382347
2023-02-24T20:01:16.759Z,12.596427272984965
2023-02-24T20:04:17.778Z,12.556605086320724
2023-02-24T20:07:17.804Z,12.526417311304249
2023-02-24T20:11:16.244Z,12.489806618911917
2023-02-24T20:14:18.623Z,12.47374930234837
2023-02-24T20:17:18.325Z,12.406950895948466
2023-02-24T20:21:16.399Z,12.406950895948466
2023-02-24T20:24:17.928Z,12.353640664593058
2023-02-24T20:27:17.374Z,12.308680252861905
2023-02-24T20:31:19.034Z,12.279134851571234
2023-02-24T20:34:17.733Z,12.234174476765565
2023-02-24T20:37:17.687Z,12.265004445659816
2023-02-24T20:41:18.540Z,12.28170401651887
2023-02-24T20:44:17.255Z,12.232247604057557
2023-02-24T20:47:19.156Z,12.196279321020484
2023-02-24T20:51:16.916Z,12.223255531961332
2023-02-24T20:54:17.491Z,12.13975776220359
2023-02-24T20:57:16.862Z,12.21040971622715
2023-02-24T21:01:18.949Z,12.24509342288402
2023-02-24T21:04:20.378Z,12.217474914655849
2023-02-24T21:07:18.299Z,12.205271390442794
2023-02-24T21:11:17.167Z,12.211694297718713
2023-02-24T21:14:17.578Z,12.168018537210083
2023-02-24T21:17:17.527Z,12.22839385876432
2023-02-24T21:21:17.407Z,12.176368313328657
2023-02-24T21:24:17.101Z,12.120489057019586
2023-02-24T21:27:17.032Z,12.060756096958448
2023-02-24T21:31:18.303Z,12.10764325583732
2023-02-24T21:34:17.681Z,12.067821283731973
2023-02-24T21:37:19.013Z,12.00808835834987
2023-02-24T21:41:20.809Z,12.058829227933893
2023-02-24T21:44:17.579Z,12.02157643483697
2023-02-24T21:47:17.788Z,12.019649566644603
2023-02-24T21:51:17.265Z,12.083878528445439
2023-02-24T21:54:18.235Z,12.13461944042101
2023-02-24T21:57:17.815Z,12.14810753572101
2023-02-24T22:01:20.174Z,12.214905751527203
2023-02-24T22:04:18.001Z,12.200775355620227
2023-02-24T22:07:17.044Z,12.258581534609494
2023-02-24T22:11:17.990Z,12.311891710103737
2023-02-24T22:14:17.142Z,12.273354230705081
2023-02-24T22:17:16.992Z,12.277207977908256
2023-02-24T22:21:20.461Z,12.284915472805732
2023-02-24T22:24:17.286Z,12.272711939520468
2023-02-24T22:27:18.144Z,12.233532185858348
2023-02-24T22:31:19.287Z,12.229678440510543
2023-02-24T22:34:17.320Z,12.212978879228467
2023-02-24T22:37:17.115Z,12.203344518348695
2023-02-24T22:41:19.244Z,12.229678440510543
2023-02-24T22:44:19.892Z,12.245735713873092
2023-02-24T22:47:17.906Z,12.237385931369863
2023-02-24T22:51:18.423Z,12.238028222304365
2023-02-24T22:54:16.979Z,12.261792990077812
2023-02-24T22:57:17.687Z,12.293907551013763
2023-02-24T23:01:20.863Z,12.379332338443874
2023-02-24T23:04:18.912Z,12.371624835524653
2023-02-24T23:07:16.790Z,12.422365908444409
2023-02-24T23:11:19.060Z,12.493660375310082
2023-02-24T23:14:17.340Z,12.502010181401056
2023-02-24T23:17:17.023Z,12.521921260565524
2023-02-24T23:21:18.978Z,12.576516177467784
2023-02-24T23:24:18.439Z,12.606061675610544
2023-02-24T23:27:17.048Z,12.625330483931247
2023-02-24T23:31:18.613Z,12.63496488962637
2023-02-24T23:34:17.620Z,12.624045896582539
2023-02-24T23:37:17.468Z,12.597069566461505
2023-02-24T23:41:17.162Z,12.5829391110281
2023-02-24T23:44:17.384Z,12.555320499945173
2023-02-24T23:47:17.566Z,12.536693999543786
2023-02-24T23:51:18.427Z,12.531555655278499
2023-02-24T23:54:18.614Z,12.463472621239271
2023-02-24T23:57:18.806Z,12.411446940989208
